createdAt,value
2022-08-16T00:00:03.445Z,9.52
2022-08-16T00:01:07.863Z,9.60
2022-08-16T00:02:13.193Z,9.38
2022-08-16T00:03:16.006Z,9.27
2022-08-16T00:04:20.415Z,9.43
2022-08-16T00:05:25.646Z,10.05
2022-08-16T00:06:31.388Z,9.45
2022-08-16T00:07:35.545Z,9.00
2022-08-16T00:08:38.597Z,9.27
2022-08-16T00:09:41.907Z,10.02
2022-08-16T00:10:45.375Z,9.40
2022-08-16T00:11:48.113Z,10.02
2022-08-16T00:12:56.502Z,9.73
2022-08-16T00:13:59.400Z,9.07
2022-08-16T00:15:05.849Z,8.70
2022-08-16T00:17:11.745Z,9.32
2022-08-16T00:17:56.297Z,10.52
2022-08-16T00:19:00.744Z,10.18
2022-08-16T00:20:08.959Z,9.82
2022-08-16T00:21:15.134Z,9.80
2022-08-16T00:22:17.918Z,10.82
2022-08-16T00:23:24.576Z,9.18
2022-08-16T00:24:37.595Z,10.65
2022-08-16T00:26:33.902Z,9.90
2022-08-16T00:27:04.852Z,9.77
2022-08-16T00:28:08.640Z,9.90
2022-08-16T00:29:16.462Z,9.55
2022-08-16T00:30:29.120Z,9.63
2022-08-16T00:31:59.292Z,9.23
2022-08-16T00:32:59.272Z,10.85
2022-08-16T00:34:02.275Z,9.48
2022-08-16T00:35:15.020Z,9.73
2022-08-16T00:36:18.477Z,9.50
2022-08-16T00:37:24.549Z,10.13
2022-08-16T00:38:41.193Z,10.25
2022-08-16T00:39:47.505Z,10.40
2022-08-16T00:40:53.632Z,9.43
2022-08-16T00:41:56.703Z,10.02
2022-08-16T00:42:59.370Z,9.27
2022-08-16T00:44:10.867Z,10.65
2022-08-16T00:45:35.515Z,10.70
2022-08-16T00:46:52.931Z,10.55
2022-08-16T00:48:30.731Z,9.23
2022-08-16T00:49:30.647Z,10.10
2022-08-16T00:50:43.742Z,9.65
2022-08-16T00:51:47.489Z,10.98
2022-08-16T00:52:59.196Z,9.52
2022-08-16T00:54:02.274Z,9.82
2022-08-16T00:55:08.459Z,9.85
2022-08-16T00:56:56.862Z,10.23
2022-08-16T00:57:58.825Z,9.82
2022-08-16T00:59:01.265Z,10.75
2022-08-16T01:00:08.786Z,10.50
2022-08-16T01:01:12.347Z,10.18
2022-08-16T01:02:46.869Z,9.20
2022-08-16T01:03:41.548Z,10.13
2022-08-16T01:04:44.573Z,10.15
2022-08-16T01:06:40.538Z,10.13
2022-08-16T01:07:51.374Z,9.63
2022-08-16T01:08:54.627Z,10.20
2022-08-16T01:10:00.040Z,9.57
2022-08-16T01:11:04.813Z,10.88
2022-08-16T01:12:10.637Z,9.48
2022-08-16T01:13:21.342Z,10.02
2022-08-16T01:14:31.731Z,10.48
2022-08-16T01:15:36.423Z,10.40
2022-08-16T01:16:40.936Z,10.98
2022-08-16T01:17:48.126Z,10.57
2022-08-16T01:19:02.684Z,9.98
2022-08-16T01:20:23.679Z,10.32
2022-08-16T01:21:35.811Z,9.85
2022-08-16T01:23:04.139Z,10.32
2022-08-16T01:24:52.964Z,11.23
2022-08-16T01:26:00.170Z,10.40
2022-08-16T01:27:34.530Z,9.88
2022-08-16T01:28:38.970Z,9.80
2022-08-16T01:30:00.031Z,10.07
2022-08-16T01:31:08.378Z,10.57
2022-08-16T01:32:11.133Z,9.75
2022-08-16T01:33:35.967Z,10.48
2022-08-16T01:34:47.441Z,9.93
2022-08-16T01:36:11.691Z,10.38
2022-08-16T01:37:21.368Z,10.35
2022-08-16T01:38:31.574Z,10.40
2022-08-16T01:40:39.926Z,10.18
2022-08-16T01:41:44.487Z,9.38
2022-08-16T01:42:49.675Z,9.90
2022-08-16T01:43:56.796Z,10.68
2022-08-16T01:45:05.148Z,9.55
2022-08-16T01:46:37.860Z,10.98
2022-08-16T01:47:49.296Z,10.23
2022-08-16T01:48:57.948Z,10.32
2022-08-16T01:50:42.838Z,10.18
2022-08-16T01:51:27.290Z,10.55
2022-08-16T01:52:31.293Z,9.88
2022-08-16T01:53:54.564Z,10.07
2022-08-16T01:55:04.757Z,10.18
2022-08-16T01:56:24.457Z,10.10
2022-08-16T01:57:31.543Z,10.20
2022-08-16T01:58:34.457Z,10.63
2022-08-16T01:59:41.316Z,10.40
2022-08-16T02:00:48.154Z,11.18
2022-08-16T02:01:59.498Z,10.35
2022-08-16T02:03:03.508Z,10.73
2022-08-16T02:04:10.895Z,9.02
2022-08-16T02:05:16.968Z,10.60
2022-08-16T02:06:33.819Z,10.45
2022-08-16T02:07:39.257Z,10.38
2022-08-16T02:08:51.190Z,8.88
2022-08-16T02:09:57.365Z,10.27
2022-08-16T02:11:09.943Z,10.25
2022-08-16T02:12:50.398Z,10.05
2022-08-16T02:13:41.871Z,10.40
2022-08-16T02:14:48.056Z,9.65
2022-08-16T02:15:51.325Z,10.68
2022-08-16T02:17:02.454Z,9.57
2022-08-16T02:18:07.988Z,10.60
2022-08-16T02:19:18.453Z,10.52
2022-08-16T02:20:26.186Z,10.38
2022-08-16T02:21:31.698Z,10.25
2022-08-16T02:22:36.812Z,10.52
2022-08-16T02:23:40.001Z,10.57
2022-08-16T02:24:45.865Z,10.45
2022-08-16T02:25:52.351Z,10.25
2022-08-16T02:26:57.171Z,10.32
2022-08-16T02:28:01.738Z,9.90
2022-08-16T02:29:04.867Z,10.60
2022-08-16T02:30:37.149Z,10.23
2022-08-16T02:32:03.314Z,10.52
2022-08-16T02:33:05.747Z,9.43
2022-08-16T02:34:10.064Z,10.45
2022-08-16T02:35:16.430Z,10.68
2022-08-16T02:36:47.147Z,10.57
2022-08-16T02:37:52.595Z,10.13
2022-08-16T02:38:57.386Z,9.88
2022-08-16T02:40:01.312Z,10.35
2022-08-16T02:41:07.292Z,10.38
2022-08-16T02:42:13.675Z,10.10
2022-08-16T02:43:27.187Z,10.48
2022-08-16T02:44:33.380Z,9.93
2022-08-16T02:45:36.563Z,10.60
2022-08-16T02:46:40.182Z,10.40
2022-08-16T02:48:00.518Z,10.35
2022-08-16T02:49:18.314Z,10.10
2022-08-16T02:50:55.562Z,9.85
2022-08-16T02:51:46.077Z,9.07
2022-08-16T02:52:49.837Z,10.80
2022-08-16T02:53:53.361Z,10.38
2022-08-16T02:54:58.808Z,11.35
2022-08-16T02:56:02.841Z,10.95
2022-08-16T02:57:05.869Z,9.35
2022-08-16T02:58:11.676Z,10.25
2022-08-16T02:59:16.512Z,10.15
2022-08-16T03:00:34.695Z,10.80
2022-08-16T03:01:39.769Z,11.13
2022-08-16T03:02:55.917Z,10.25
2022-08-16T03:04:30.017Z,10.77
2022-08-16T03:05:24.380Z,9.95
2022-08-16T03:06:41.904Z,9.60
2022-08-16T03:07:57.326Z,10.13
2022-08-16T03:09:01.543Z,10.05
2022-08-16T03:10:08.738Z,10.25
2022-08-16T03:11:21.799Z,10.07
2022-08-16T03:12:30.325Z,10.10
2022-08-16T03:13:39.990Z,9.57
2022-08-16T03:14:45.006Z,9.52
2022-08-16T03:15:49.560Z,10.55
2022-08-16T03:16:59.306Z,9.25
2022-08-16T03:18:12.551Z,9.20
2022-08-16T03:19:22.523Z,9.27
2022-08-16T03:20:32.450Z,9.48
2022-08-16T03:21:38.981Z,9.45
2022-08-16T03:22:45.315Z,10.48
2022-08-16T03:23:50.418Z,10.10
2022-08-16T03:24:54.643Z,9.40
2022-08-16T03:26:01.167Z,9.55
2022-08-16T03:27:05.171Z,9.23
2022-08-16T03:28:10.137Z,9.45
2022-08-16T03:29:14.517Z,10.27
2022-08-16T03:30:23.123Z,9.50
2022-08-16T03:31:34.905Z,9.32
2022-08-16T03:32:44.231Z,8.80
2022-08-16T03:33:52.292Z,9.63
2022-08-16T03:34:55.773Z,9.13
2022-08-16T03:36:30.077Z,9.27
2022-08-16T03:37:27.994Z,9.48
2022-08-16T03:38:33.052Z,9.20
2022-08-16T03:39:42.953Z,9.00
2022-08-16T03:40:46.800Z,10.10
2022-08-16T03:41:59.166Z,9.88
2022-08-16T03:43:20.395Z,10.15
2022-08-16T03:44:45.054Z,10.07
2022-08-16T03:45:52.798Z,10.07
2022-08-16T03:46:58.223Z,10.25
2022-08-16T03:48:08.193Z,9.55
2022-08-16T03:49:12.612Z,9.23
2022-08-16T03:50:26.246Z,9.85
2022-08-16T03:51:30.273Z,9.85
2022-08-16T03:52:38.717Z,9.80
2022-08-16T03:53:57.817Z,9.00
2022-08-16T03:55:06.624Z,9.13
2022-08-16T03:56:18.569Z,9.45
2022-08-16T03:57:24.134Z,9.45
2022-08-16T03:58:37.020Z,9.07
2022-08-16T03:59:43.591Z,9.15
2022-08-16T04:00:59.029Z,9.18
2022-08-16T04:02:07.207Z,8.70
2022-08-16T04:03:24.969Z,9.82
2022-08-16T04:04:32.768Z,9.52
2022-08-16T04:05:40.595Z,9.07
2022-08-16T04:06:47.011Z,9.75
2022-08-16T04:07:50.693Z,9.55
2022-08-16T04:08:53.951Z,9.02
2022-08-16T04:09:56.641Z,9.48
2022-08-16T04:10:59.688Z,8.93
2022-08-16T04:12:11.221Z,9.18
2022-08-16T04:14:00.155Z,9.40
2022-08-16T04:14:56.286Z,9.40
2022-08-16T04:16:02.745Z,9.93
2022-08-16T04:17:09.702Z,9.85
2022-08-16T04:18:13.500Z,9.27
2022-08-16T04:19:17.359Z,9.55
2022-08-16T04:20:29.385Z,8.95
2022-08-16T04:21:47.419Z,9.75
2022-08-16T04:22:56.200Z,9.18
2022-08-16T04:24:00.470Z,8.65
2022-08-16T04:25:04.673Z,9.23
2022-08-16T04:26:16.704Z,8.88
2022-08-16T04:27:21.087Z,9.45
2022-08-16T04:28:51.942Z,9.73
2022-08-16T04:29:48.516Z,9.05
2022-08-16T04:30:55.494Z,8.52
2022-08-16T04:31:59.552Z,9.50
2022-08-16T04:33:10.407Z,8.45
2022-08-16T04:34:15.950Z,8.70
2022-08-16T04:35:23.470Z,9.15
2022-08-16T04:36:27.705Z,9.07
2022-08-16T04:37:30.520Z,9.75
2022-08-16T04:38:42.901Z,9.98
2022-08-16T04:39:47.189Z,9.98
2022-08-16T04:40:58.222Z,9.93
2022-08-16T04:42:11.232Z,9.88
2022-08-16T04:43:17.394Z,8.40
2022-08-16T04:44:52.455Z,8.63
2022-08-16T04:45:44.201Z,9.45
2022-08-16T04:47:00.614Z,9.57
2022-08-16T04:48:06.579Z,9.48
2022-08-16T04:49:17.965Z,8.93
2022-08-16T04:50:30.587Z,8.65
2022-08-16T04:51:53.923Z,9.00
2022-08-16T04:52:59.544Z,7.82
2022-08-16T04:54:05.179Z,9.05
2022-08-16T04:55:31.774Z,8.40
2022-08-16T04:56:42.947Z,8.45
2022-08-16T04:57:53.334Z,8.18
2022-08-16T04:58:57.978Z,9.10
2022-08-16T05:00:31.288Z,9.07
2022-08-16T05:01:24.148Z,8.60
2022-08-16T05:02:54.898Z,8.68
2022-08-16T05:04:01.759Z,9.60
2022-08-16T05:05:18.017Z,9.02
2022-08-16T05:06:21.496Z,8.80
2022-08-16T05:07:58.401Z,8.75
2022-08-16T05:09:03.779Z,8.25
2022-08-16T05:10:19.994Z,7.78
2022-08-16T05:11:32.092Z,8.07
2022-08-16T05:12:35.584Z,8.73
2022-08-16T05:13:42.842Z,8.88
2022-08-16T05:15:02.137Z,8.73
2022-08-16T05:16:20.252Z,8.98
2022-08-16T05:17:28.128Z,9.35
2022-08-16T05:18:35.613Z,8.50
2022-08-16T05:19:38.345Z,8.27
2022-08-16T05:21:01.738Z,8.70
2022-08-16T05:22:18.340Z,8.27
2022-08-16T05:23:27.657Z,9.07
2022-08-16T05:24:39.048Z,8.40
2022-08-16T05:25:48.545Z,8.65
2022-08-16T05:26:52.591Z,8.10
2022-08-16T05:27:57.746Z,8.43
2022-08-16T05:29:03.703Z,8.32
2022-08-16T05:30:34.416Z,8.23
2022-08-16T05:31:32.130Z,7.78
2022-08-16T05:32:47.574Z,8.10
2022-08-16T05:33:53.639Z,8.43
2022-08-16T05:34:59.786Z,8.13
2022-08-16T05:36:03.790Z,7.68
2022-08-16T05:37:08.598Z,8.10
2022-08-16T05:38:32.996Z,8.40
2022-08-16T05:39:40.862Z,7.70
2022-08-16T05:40:57.243Z,8.63
2022-08-16T05:43:07.957Z,7.65
2022-08-16T05:44:23.051Z,8.43
2022-08-16T05:45:28.962Z,8.32
2022-08-16T05:46:35.669Z,8.63
2022-08-16T05:47:59.985Z,8.55
2022-08-16T05:49:22.268Z,8.85
2022-08-16T05:50:34.072Z,8.23
2022-08-16T05:51:41.590Z,7.47
2022-08-16T05:52:45.409Z,8.57
2022-08-16T05:53:48.455Z,7.97
2022-08-16T05:55:01.026Z,8.13
2022-08-16T05:56:07.487Z,9.35
2022-08-16T05:57:17.445Z,7.70
2022-08-16T05:58:33.144Z,7.88
2022-08-16T05:59:37.565Z,8.32
2022-08-16T06:00:40.693Z,8.07
2022-08-16T06:01:46.654Z,7.80
2022-08-16T06:02:51.981Z,8.10
2022-08-16T06:04:35.937Z,7.82
2022-08-16T06:05:43.001Z,8.02
2022-08-16T06:06:56.281Z,7.63
2022-08-16T06:08:00.980Z,7.65
2022-08-16T06:09:08.955Z,8.70
2022-08-16T06:10:13.104Z,7.93
2022-08-16T06:11:15.808Z,7.95
2022-08-16T06:12:27.547Z,7.50
2022-08-16T06:13:37.457Z,9.13
2022-08-16T06:14:46.046Z,7.57
2022-08-16T06:15:52.083Z,7.03
2022-08-16T06:16:55.260Z,7.30
2022-08-16T06:17:59.308Z,7.53
2022-08-16T06:19:04.944Z,7.25
2022-08-16T06:20:10.962Z,7.70
2022-08-16T06:21:14.810Z,7.88
2022-08-16T06:22:39.379Z,7.55
2022-08-16T06:23:42.700Z,7.70
2022-08-16T06:24:54.127Z,7.65
2022-08-16T06:25:59.573Z,7.93
2022-08-16T06:27:07.661Z,7.65
2022-08-16T06:28:16.587Z,7.25
2022-08-16T06:29:20.705Z,7.38
2022-08-16T06:30:28.689Z,7.35
2022-08-16T06:31:32.268Z,6.68
2022-08-16T06:32:49.880Z,6.90
2022-08-16T06:33:54.229Z,7.20
2022-08-16T06:35:02.655Z,7.53
2022-08-16T06:36:09.174Z,7.13
2022-08-16T06:37:12.435Z,7.50
2022-08-16T06:38:32.808Z,6.80
2022-08-16T06:39:49.941Z,7.65
2022-08-16T06:41:27.661Z,5.97
2022-08-16T06:42:47.069Z,7.20
2022-08-16T06:44:27.087Z,6.90
2022-08-16T06:45:38.116Z,7.18
2022-08-16T06:46:54.382Z,6.85
2022-08-16T06:47:57.146Z,6.55
2022-08-16T06:49:13.022Z,6.78
2022-08-16T06:50:22.230Z,6.93
2022-08-16T06:51:46.590Z,7.25
2022-08-16T06:52:57.649Z,7.30
2022-08-16T06:54:04.448Z,6.47
2022-08-16T06:55:12.817Z,6.60
2022-08-16T06:56:23.398Z,6.97
2022-08-16T06:57:40.370Z,7.78
2022-08-16T06:58:43.495Z,7.10
2022-08-16T06:59:58.184Z,7.47
2022-08-16T07:01:09.839Z,6.70
2022-08-16T07:02:32.743Z,6.95
2022-08-16T07:03:54.950Z,6.68
2022-08-16T07:04:59.685Z,6.75
2022-08-16T07:06:02.907Z,6.35
2022-08-16T07:07:14.544Z,6.75
2022-08-16T07:08:18.230Z,7.30
2022-08-16T07:09:22.072Z,6.40
2022-08-16T07:11:48.238Z,6.43
2022-08-16T07:13:11.889Z,6.70
2022-08-16T07:14:24.103Z,6.53
2022-08-16T07:15:30.205Z,6.70
2022-08-16T07:16:33.170Z,6.53
2022-08-16T07:17:36.457Z,6.50
2022-08-16T07:18:39.628Z,6.53
2022-08-16T07:20:29.954Z,6.05
2022-08-16T07:21:45.633Z,7.20
2022-08-16T07:22:52.523Z,6.78
2022-08-16T07:24:05.806Z,6.15
2022-08-16T07:25:13.406Z,6.07
2022-08-16T07:26:25.577Z,6.30
2022-08-16T07:27:33.696Z,6.55
2022-08-16T07:28:41.906Z,6.07
2022-08-16T07:29:48.493Z,6.97
2022-08-16T07:30:51.490Z,6.68
2022-08-16T07:32:19.271Z,6.22
2022-08-16T07:33:52.156Z,6.22
2022-08-16T07:35:03.036Z,6.13
2022-08-16T07:36:07.112Z,6.13
2022-08-16T07:37:12.622Z,6.25
2022-08-16T07:38:46.163Z,6.05
2022-08-16T07:39:50.399Z,6.07
2022-08-16T07:40:59.803Z,5.60
2022-08-16T07:42:06.805Z,6.20
2022-08-16T07:43:09.966Z,5.68
2022-08-16T07:44:16.419Z,5.55
2022-08-16T07:45:20.682Z,6.75
2022-08-16T07:46:38.629Z,5.22
2022-08-16T07:48:11.614Z,5.43
2022-08-16T07:49:18.120Z,6.00
2022-08-16T07:50:56.451Z,5.93
2022-08-16T07:51:44.306Z,5.45
2022-08-16T07:52:47.205Z,5.28
2022-08-16T07:54:02.366Z,4.75
2022-08-16T07:55:14.363Z,5.32
2022-08-16T07:56:18.866Z,5.20
2022-08-16T07:57:24.157Z,5.32
2022-08-16T07:58:35.128Z,5.05
2022-08-16T07:59:46.590Z,4.75
2022-08-16T08:00:51.843Z,4.90
2022-08-16T08:01:55.615Z,5.60
2022-08-16T08:03:00.636Z,4.88
2022-08-16T08:04:08.950Z,5.10
2022-08-16T08:05:16.200Z,4.65
2022-08-16T08:06:32.917Z,4.93
2022-08-16T08:07:45.441Z,4.57
2022-08-16T08:08:49.617Z,4.85
2022-08-16T08:09:55.096Z,4.63
2022-08-16T08:10:57.784Z,4.78
2022-08-16T08:12:31.325Z,4.47
2022-08-16T08:13:42.788Z,5.00
2022-08-16T08:14:47.949Z,4.85
2022-08-16T08:15:54.031Z,4.60
2022-08-16T08:17:01.454Z,4.25
2022-08-16T08:18:49.922Z,4.45
2022-08-16T08:19:29.139Z,4.65
2022-08-16T08:20:33.851Z,4.07
2022-08-16T08:22:00.863Z,4.10
2022-08-16T08:23:08.841Z,4.03
2022-08-16T08:24:15.470Z,4.40
2022-08-16T08:25:19.198Z,4.20
2022-08-16T08:26:22.232Z,4.20
2022-08-16T08:27:27.793Z,4.10
2022-08-16T08:28:36.056Z,3.58
2022-08-16T08:29:42.597Z,4.50
2022-08-16T08:31:01.433Z,4.30
2022-08-16T08:32:57.850Z,4.40
2022-08-16T08:33:34.746Z,3.90
2022-08-16T08:34:38.165Z,3.92
2022-08-16T08:35:41.853Z,3.70
2022-08-16T08:36:46.015Z,3.75
2022-08-16T08:38:12.843Z,4.13
2022-08-16T08:39:20.839Z,3.88
2022-08-16T08:40:27.166Z,4.05
2022-08-16T08:41:31.473Z,3.53
2022-08-16T08:42:36.675Z,3.47
2022-08-16T08:43:43.059Z,3.72
2022-08-16T08:44:49.321Z,3.58
2022-08-16T08:45:53.585Z,3.15
2022-08-16T08:47:01.887Z,3.70
2022-08-16T08:48:06.601Z,4.07
2022-08-16T08:49:11.758Z,3.90
2022-08-16T08:50:32.001Z,3.95
2022-08-16T08:51:38.456Z,3.97
2022-08-16T08:52:50.288Z,3.70
2022-08-16T08:53:57.357Z,4.63
2022-08-16T08:55:10.931Z,4.03
2022-08-16T08:56:23.074Z,3.65
2022-08-16T08:57:32.990Z,4.10
2022-08-16T08:58:53.671Z,4.10
2022-08-16T09:00:13.749Z,3.92
2022-08-16T09:01:31.484Z,4.45
2022-08-16T09:02:39.343Z,4.25
2022-08-16T09:03:42.076Z,3.38
2022-08-16T09:04:47.652Z,4.15
2022-08-16T09:05:52.754Z,4.55
2022-08-16T09:06:58.542Z,4.18
2022-08-16T09:08:06.117Z,3.92
2022-08-16T09:09:23.366Z,4.28
2022-08-16T09:10:33.798Z,4.32
2022-08-16T09:11:40.500Z,4.40
2022-08-16T09:12:46.648Z,4.28
2022-08-16T09:13:59.515Z,4.25
2022-08-16T09:15:03.455Z,3.95
2022-08-16T09:16:10.211Z,4.38
2022-08-16T09:17:37.944Z,4.50
2022-08-16T09:18:38.549Z,4.20
2022-08-16T09:19:42.837Z,4.70
2022-08-16T09:20:59.527Z,4.35
2022-08-16T09:22:04.735Z,4.25
2022-08-16T09:23:07.841Z,4.85
2022-08-16T09:24:47.101Z,4.80
2022-08-16T09:25:41.037Z,4.35
2022-08-16T09:26:49.522Z,4.72
2022-08-16T09:27:57.861Z,4.50
2022-08-16T09:29:15.697Z,4.68
2022-08-16T09:30:33.625Z,4.78
2022-08-16T09:31:41.074Z,4.25
2022-08-16T09:32:47.179Z,4.38
2022-08-16T09:33:52.880Z,4.32
2022-08-16T09:34:58.290Z,4.25
2022-08-16T09:36:02.151Z,4.22
2022-08-16T09:37:17.912Z,4.95
2022-08-16T09:38:32.063Z,4.03
2022-08-16T09:39:41.305Z,4.15
2022-08-16T09:41:53.855Z,4.20
2022-08-16T09:42:59.480Z,4.30
2022-08-16T09:45:09.560Z,3.70
2022-08-16T09:45:29.013Z,4.00
2022-08-16T09:46:48.513Z,3.85
2022-08-16T09:47:56.530Z,4.20
2022-08-16T09:49:03.329Z,3.97
2022-08-16T09:50:11.776Z,3.47
2022-08-16T09:51:14.992Z,3.60
2022-08-16T09:52:17.708Z,2.80
2022-08-16T09:53:23.292Z,3.20
2022-08-16T09:54:32.331Z,3.60
2022-08-16T09:55:44.475Z,3.35
2022-08-16T09:56:53.182Z,3.15
2022-08-16T09:58:00.571Z,3.47
2022-08-16T09:59:08.173Z,2.78
2022-08-16T10:00:42.150Z,3.10
2022-08-16T10:01:43.517Z,3.00
2022-08-16T10:02:48.345Z,2.92
2022-08-16T10:04:02.640Z,3.55
2022-08-16T10:05:07.618Z,3.67
2022-08-16T10:06:11.139Z,3.20
2022-08-16T10:07:16.060Z,3.50
2022-08-16T10:08:25.732Z,3.03
2022-08-16T10:09:44.702Z,3.15
2022-08-16T10:11:11.323Z,2.83
2022-08-16T10:12:32.687Z,3.50
2022-08-16T10:13:36.088Z,3.78
2022-08-16T10:14:38.825Z,3.45
2022-08-16T10:15:43.596Z,3.10
2022-08-16T10:17:02.385Z,3.60
2022-08-16T10:19:02.211Z,3.50
2022-08-16T10:19:31.897Z,3.55
2022-08-16T10:20:41.477Z,3.20
2022-08-16T10:21:44.737Z,3.35
2022-08-16T10:23:05.560Z,3.45
2022-08-16T10:24:09.308Z,3.10
2022-08-16T10:27:16.137Z,3.38
2022-08-16T10:27:19.014Z,3.38
2022-08-16T10:28:27.790Z,3.83
2022-08-16T10:29:23.822Z,3.60
2022-08-16T10:30:28.343Z,3.20
2022-08-16T10:31:43.450Z,3.70
2022-08-16T10:32:48.954Z,3.58
2022-08-16T10:33:54.310Z,3.13
2022-08-16T10:34:57.291Z,3.75
2022-08-16T10:36:03.649Z,3.45
2022-08-16T10:37:07.111Z,3.80
2022-08-16T10:38:27.291Z,3.97
2022-08-16T10:39:32.843Z,4.07
2022-08-16T10:40:45.540Z,3.78
2022-08-16T10:41:48.438Z,4.03
2022-08-16T10:42:51.364Z,3.90
2022-08-16T10:43:54.028Z,4.25
2022-08-16T10:44:57.847Z,3.50
2022-08-16T10:46:01.416Z,4.22
2022-08-16T10:47:04.792Z,3.63
2022-08-16T10:48:28.166Z,3.80
2022-08-16T10:49:32.282Z,3.00
2022-08-16T10:50:36.318Z,4.13
2022-08-16T10:52:02.836Z,3.53
2022-08-16T10:53:07.535Z,3.53
2022-08-16T10:54:29.085Z,3.70
2022-08-16T10:55:45.067Z,3.58
2022-08-16T10:56:55.699Z,3.83
2022-08-16T10:58:11.360Z,3.80
2022-08-16T10:59:32.700Z,3.70
2022-08-16T11:00:40.820Z,3.97
2022-08-16T11:01:44.341Z,3.97
2022-08-16T11:02:58.462Z,3.95
2022-08-16T11:05:04.931Z,3.85
2022-08-16T11:05:27.023Z,4.45
2022-08-16T11:06:30.311Z,4.82
2022-08-16T11:07:52.124Z,4.68
2022-08-16T11:12:14.067Z,4.70
2022-08-16T11:13:58.359Z,5.03
2022-08-16T11:15:11.239Z,4.47
2022-08-16T11:17:27.685Z,5.18
2022-08-16T11:19:04.391Z,4.50
2022-08-16T11:20:01.153Z,5.00
2022-08-16T11:21:29.288Z,4.20
2022-08-16T11:22:47.139Z,5.05
2022-08-16T11:23:58.198Z,4.63
2022-08-16T11:26:07.769Z,4.90
2022-08-16T11:26:25.085Z,4.97
2022-08-16T11:27:35.502Z,5.25
2022-08-16T11:30:01.888Z,4.93
2022-08-16T11:31:05.336Z,5.25
2022-08-16T11:32:08.128Z,4.80
2022-08-16T11:33:13.103Z,5.65
2022-08-16T11:34:19.835Z,4.97
2022-08-16T11:36:54.006Z,5.05
2022-08-16T11:38:47.407Z,5.18
2022-08-16T11:39:35.367Z,4.80
2022-08-16T11:40:58.734Z,5.30
2022-08-16T11:42:02.486Z,5.45
2022-08-16T11:43:06.508Z,4.97
2022-08-16T11:44:11.688Z,4.40
2022-08-16T11:45:23.668Z,4.82
2022-08-16T11:46:43.372Z,5.40
2022-08-16T11:47:49.144Z,4.53
2022-08-16T11:48:52.150Z,4.30
2022-08-16T11:49:54.981Z,4.95
2022-08-16T11:50:57.990Z,4.60
2022-08-16T11:52:01.701Z,5.47
2022-08-16T11:53:08.145Z,5.18
2022-08-16T11:54:21.292Z,5.22
2022-08-16T11:55:25.819Z,5.40
2022-08-16T11:56:51.876Z,5.10
2022-08-16T11:57:57.310Z,4.90
2022-08-16T11:59:00.292Z,4.80
2022-08-16T12:00:06.837Z,5.18
2022-08-16T12:01:15.435Z,5.18
2022-08-16T12:02:31.929Z,5.45
2022-08-16T12:03:35.821Z,4.70
2022-08-16T12:04:39.222Z,4.65
2022-08-16T12:05:45.207Z,5.03
2022-08-16T12:06:48.519Z,5.13
2022-08-16T12:07:53.096Z,5.00
2022-08-16T12:09:02.093Z,4.90
2022-08-16T12:10:08.717Z,5.75
2022-08-16T12:11:12.857Z,6.10
2022-08-16T12:12:15.528Z,5.50
2022-08-16T12:13:21.385Z,5.65
2022-08-16T12:14:24.223Z,6.25
2022-08-16T12:15:27.141Z,5.90
2022-08-16T12:16:37.134Z,5.63
2022-08-16T12:17:41.566Z,5.43
2022-08-16T12:18:44.829Z,6.00
2022-08-16T12:19:47.656Z,6.30
2022-08-16T12:20:50.477Z,6.05
2022-08-16T12:21:59.586Z,5.80
2022-08-16T12:23:03.380Z,5.85
2022-08-16T12:24:06.552Z,7.13
2022-08-16T12:25:13.547Z,6.43
2022-08-16T12:26:17.886Z,6.70
2022-08-16T12:27:25.455Z,6.53
2022-08-16T12:28:36.866Z,6.80
2022-08-16T12:29:52.790Z,6.57
2022-08-16T12:30:55.694Z,6.13
2022-08-16T12:32:01.437Z,6.97
2022-08-16T12:33:25.455Z,6.00
2022-08-16T12:34:29.711Z,5.80
2022-08-16T12:35:33.879Z,5.88
2022-08-16T12:36:37.299Z,6.85
2022-08-16T12:37:41.482Z,6.35
2022-08-16T12:38:48.657Z,6.57
2022-08-16T12:39:55.712Z,5.68
2022-08-16T12:40:58.588Z,5.97
2022-08-16T12:42:03.237Z,6.28
2022-08-16T12:43:08.707Z,6.60
2022-08-16T12:44:13.157Z,5.95
2022-08-16T12:45:23.858Z,6.30
2022-08-16T12:46:26.954Z,6.20
2022-08-16T12:47:48.811Z,6.60
2022-08-16T12:48:58.412Z,6.55
2022-08-16T12:50:01.765Z,5.85
2022-08-16T12:51:13.756Z,6.30
2022-08-16T12:52:32.648Z,6.53
2022-08-16T12:53:40.020Z,6.05
2022-08-16T12:54:43.157Z,6.78
2022-08-16T12:55:45.890Z,6.32
2022-08-16T12:56:51.341Z,5.95
2022-08-16T12:57:58.855Z,6.07
2022-08-16T12:59:08.970Z,6.53
2022-08-16T13:00:26.528Z,6.70
2022-08-16T13:01:32.161Z,6.50
2022-08-16T13:02:36.605Z,6.80
2022-08-16T13:03:41.057Z,6.32
2022-08-16T13:04:43.737Z,5.68
2022-08-16T13:05:55.402Z,5.82
2022-08-16T13:06:59.334Z,5.95
2022-08-16T13:08:02.249Z,6.00
2022-08-16T13:09:20.481Z,6.35
2022-08-16T13:10:37.942Z,6.15
2022-08-16T13:11:49.248Z,6.68
2022-08-16T13:13:00.594Z,5.80
2022-08-16T13:14:03.421Z,5.72
2022-08-16T13:15:10.871Z,5.97
2022-08-16T13:16:20.066Z,6.00
2022-08-16T13:17:26.355Z,5.95
2022-08-16T13:18:35.757Z,6.72
2022-08-16T13:21:06.735Z,6.32
2022-08-16T13:22:09.514Z,6.13
2022-08-16T13:23:22.171Z,6.47
2022-08-16T13:24:26.410Z,6.38
2022-08-16T13:25:30.871Z,5.32
2022-08-16T13:26:34.035Z,6.22
2022-08-16T13:28:02.214Z,5.97
2022-08-16T13:28:59.898Z,5.50
2022-08-16T13:30:02.866Z,5.53
2022-08-16T13:31:24.836Z,6.18
2022-08-16T13:32:40.589Z,6.25
2022-08-16T13:33:43.840Z,6.10
2022-08-16T13:34:47.011Z,6.45
2022-08-16T13:35:57.715Z,5.07
2022-08-16T13:37:08.985Z,5.57
2022-08-16T13:38:25.151Z,5.53
2022-08-16T13:39:32.057Z,5.70
2022-08-16T13:40:38.113Z,6.20
2022-08-16T13:41:42.055Z,5.68
2022-08-16T13:42:47.507Z,5.95
2022-08-16T13:43:57.904Z,5.70
2022-08-16T13:45:02.300Z,5.55
2022-08-16T13:46:06.806Z,5.20
2022-08-16T13:47:09.353Z,6.72
2022-08-16T13:48:21.793Z,5.55
2022-08-16T13:49:27.685Z,5.72
2022-08-16T13:50:49.067Z,5.75
2022-08-16T13:51:54.753Z,5.68
2022-08-16T13:52:58.270Z,5.28
2022-08-16T13:54:06.009Z,6.15
2022-08-16T13:55:17.626Z,5.38
2022-08-16T13:56:25.300Z,5.00
2022-08-16T13:57:53.240Z,4.63
2022-08-16T13:58:54.939Z,4.95
2022-08-16T13:59:58.179Z,5.13
2022-08-16T14:01:01.834Z,4.78
2022-08-16T14:02:08.617Z,5.13
2022-08-16T14:03:14.613Z,4.15
2022-08-16T14:04:26.629Z,4.43
2022-08-16T14:05:29.681Z,4.05
2022-08-16T14:06:32.591Z,3.72
2022-08-16T14:07:40.696Z,4.53
2022-08-16T14:08:44.199Z,4.57
2022-08-16T14:10:01.836Z,4.82
2022-08-16T14:11:06.255Z,3.92
2022-08-16T14:12:24.196Z,3.72
2022-08-16T14:13:26.926Z,3.95
2022-08-16T14:14:31.476Z,4.10
2022-08-16T14:15:34.732Z,3.58
2022-08-16T14:16:38.061Z,4.00
2022-08-16T14:18:14.992Z,3.97
2022-08-16T14:19:05.764Z,4.20
2022-08-16T14:20:19.186Z,3.58
2022-08-16T14:21:23.920Z,3.78
2022-08-16T14:22:35.609Z,4.18
2022-08-16T14:23:41.007Z,4.25
2022-08-16T14:24:46.964Z,3.97
2022-08-16T14:25:54.255Z,3.80
2022-08-16T14:26:59.916Z,3.58
2022-08-16T14:28:09.554Z,3.60
2022-08-16T14:29:12.878Z,4.20
2022-08-16T14:30:18.389Z,3.70
2022-08-16T14:31:21.621Z,3.88
2022-08-16T14:32:33.201Z,3.55
2022-08-16T14:33:37.380Z,3.58
2022-08-16T14:34:40.857Z,3.50
2022-08-16T14:35:48.832Z,3.70
2022-08-16T14:36:53.369Z,4.07
2022-08-16T14:37:56.932Z,3.70
2022-08-16T14:39:01.293Z,3.88
2022-08-16T14:40:10.450Z,3.90
2022-08-16T14:41:15.400Z,3.35
2022-08-16T14:42:21.555Z,3.30
2022-08-16T14:43:25.469Z,4.03
2022-08-16T14:44:28.302Z,3.72
2022-08-16T14:45:30.941Z,3.55
2022-08-16T14:46:33.842Z,3.67
2022-08-16T14:47:38.535Z,3.78
2022-08-16T14:48:41.452Z,4.15
2022-08-16T14:49:44.330Z,4.05
2022-08-16T14:50:47.122Z,4.07
2022-08-16T14:51:49.857Z,4.25
2022-08-16T14:53:04.462Z,3.53
2022-08-16T14:54:07.013Z,3.67
2022-08-16T14:55:14.624Z,3.90
2022-08-16T14:56:42.465Z,4.28
2022-08-16T14:57:40.933Z,4.18
2022-08-16T14:58:43.721Z,3.60
2022-08-16T14:59:50.793Z,4.07
2022-08-16T15:00:53.521Z,4.07
2022-08-16T15:01:59.838Z,3.88
2022-08-16T15:03:06.288Z,4.30
2022-08-16T15:04:08.787Z,4.03
2022-08-16T15:05:12.927Z,3.70
2022-08-16T15:06:17.141Z,3.80
2022-08-16T15:07:23.276Z,4.20
2022-08-16T15:08:36.370Z,4.25
2022-08-16T15:10:00.704Z,4.18
2022-08-16T15:11:04.834Z,4.05
2022-08-16T15:12:26.203Z,4.68
2022-08-16T15:13:33.387Z,3.95
2022-08-16T15:14:38.892Z,4.53
2022-08-16T15:15:45.091Z,4.15
2022-08-16T15:17:00.314Z,4.63
2022-08-16T15:18:03.064Z,4.57
2022-08-16T15:19:05.878Z,4.13
2022-08-16T15:20:09.540Z,4.22
2022-08-16T15:21:12.273Z,4.45
2022-08-16T15:22:17.094Z,5.03
2022-08-16T15:23:25.169Z,4.72
2022-08-16T15:24:29.441Z,5.25
2022-08-16T15:26:02.513Z,5.18
2022-08-16T15:27:06.384Z,4.53
2022-08-16T15:28:30.654Z,5.13
2022-08-16T15:29:34.449Z,4.75
2022-08-16T15:30:57.291Z,4.63
2022-08-16T15:32:01.667Z,4.30
2022-08-16T15:33:08.853Z,4.63
2022-08-16T15:34:13.271Z,4.75
2022-08-16T15:35:24.784Z,4.57
2022-08-16T15:36:28.066Z,4.57